Tuesday, April 24, 2018, 4:32 AM EDT
Back to Local

KEWR, Newark International Airport

Location: Elizabeth, NJ, United States Lat: 40.683
Local Time: 4:32 AM EDT ( 8:32 GMT) Lon: -74.167
Time Zone: US/Eastern Elev: 16 ft

Show me the last for .
Show Coded

Time T Td Feel RH Dir Speed Gust Alt SLP Vis Weather Sky Remarks
2018-04-24 03:51 47 40 - 76 - Calm - 30.40 30.40 10 FEW250 None
2018-04-24 02:51 48 40 - 73 - Calm - 30.40 30.40 10 SCT250 None
2018-04-24 01:51 49 39 - 68 - Calm - 30.41 30.41 10 SCT250 6-hr Min Temp (2am): 48.0°F
6-hr Max Temp (2am): 52.0°F
2018-04-24 00:51 50 40 - 68 - Calm - 30.42 30.42 10 BKN250 24-hr Min Temp (1am): 39.9°F
24-hr Max Temp (1am): 64.9°F
2018-04-23 23:51 51 42 - 71 - Calm - 30.43 30.42 10 BKN250 None
2018-04-23 22:51 50 43 49 76 100° 3 - 30.44 30.43 10 BKN260 None
2018-04-23 21:51 50 43 48 76 120° 5 - 30.44 30.44 10 FEW220 BKN260 None
2018-04-23 20:51 50 42 46 74 110° 9 - 30.43 30.43 10 BKN250 None
2018-04-23 19:51 52 40 - 63 110° 5 - 30.42 30.42 10 BKN250 6-hr Min Temp (8pm): 52.0°F
6-hr Max Temp (8pm): 64.0°F
2018-04-23 18:51 56 36 - 46 100° 5 - 30.42 30.42 10 SCT250 None
2018-04-23 17:51 55 37 - 50 150° 12 - 30.43 30.42 10 FEW250 None
2018-04-23 16:51 58 34 - 40 110° 9 - 30.43 30.43 10 FEW250 None
2018-04-23 15:51 60 35 - 39 120° 8 - 30.43 30.43 10 FEW250 None
2018-04-23 14:51 61 34 - 36 130° 9 16 30.44 30.44 10 FEW250 None
2018-04-23 13:51 64 34 - 32 90° 8 - 30.45 30.45 10 FEW250 6-hr Min Temp (2pm): 50.0°F
6-hr Max Temp (2pm): 64.9°F
2018-04-23 12:51 63 34 - 33 110° 7 - 30.46 30.45 10 FEW250 None
2018-04-23 11:51 62 33 - 33 80° 7 - 30.48 30.47 10 FEW250 None
2018-04-23 10:51 59 30 - 33 110° 7 - 30.48 30.48 10 FEW250 None
2018-04-23 09:51 56 31 - 38 Variable 5 - 30.48 30.48 10 FEW250 None
2018-04-23 08:51 54 31 - 41 Variable 3 - 30.47 30.47 10 FEW250 None
2018-04-23 07:51 50 31 46 47 20° 9 - 30.46 30.46 10 FEW250 6-hr Min Temp (8am): 39.9°F
6-hr Max Temp (8am): 50.0°F
2018-04-23 06:51 44 33 39 65 10° 9 - 30.45 30.45 10 CLR None
2018-04-23 05:51 41 31 37 67 20° 6 - 30.44 30.44 10 CLR None
2018-04-23 04:51 45 31 44 57 30° 3 - 30.42 30.42 10 CLR None

Support USWX by starting your Amazon purchase here.